createdAt,value
2024-01-24T00:02:50.524Z,11.21
2024-01-24T00:07:51.853Z,11.36
2024-01-24T00:12:53.129Z,11.46
2024-01-24T00:17:54.510Z,11.57
2024-01-24T00:22:55.751Z,11.63
2024-01-24T00:27:56.975Z,11.66
2024-01-24T00:32:58.250Z,11.72
2024-01-24T00:37:59.520Z,11.79
2024-01-24T00:43:01.366Z,11.79
2024-01-24T00:48:02.796Z,11.86
2024-01-24T00:53:04.142Z,11.82
2024-01-24T00:58:05.412Z,11.86
2024-01-24T01:03:06.733Z,11.92
2024-01-24T01:08:08.043Z,11.92
2024-01-24T01:13:09.251Z,12.02
2024-01-24T01:18:10.568Z,12.13
2024-01-24T01:23:11.848Z,12.10
2024-01-24T01:28:13.076Z,12.20
2024-01-24T01:33:14.388Z,12.20
2024-01-24T01:38:15.892Z,12.26
2024-01-24T01:43:17.390Z,12.24
2024-01-24T01:48:18.740Z,12.29
2024-01-24T01:53:20.067Z,12.29
2024-01-24T01:58:21.295Z,12.36
2024-01-24T02:03:22.641Z,12.31
2024-01-24T02:08:23.977Z,12.44
2024-01-24T02:13:25.403Z,12.55
2024-01-24T02:18:26.638Z,12.61
2024-01-24T02:23:27.969Z,12.61
2024-01-24T02:28:29.483Z,12.57
2024-01-24T02:33:30.748Z,12.64
2024-01-24T02:38:32.003Z,12.71
2024-01-24T02:43:33.214Z,12.75
2024-01-24T02:48:34.607Z,12.75
2024-01-24T02:53:35.898Z,12.78
2024-01-24T02:58:37.110Z,12.82
2024-01-24T03:03:38.471Z,12.87
2024-01-24T03:08:39.751Z,12.92
2024-01-24T03:13:41.004Z,12.93
2024-01-24T03:18:42.349Z,12.99
2024-01-24T03:23:43.652Z,12.98
2024-01-24T03:28:45.031Z,12.99
2024-01-24T03:33:46.362Z,13.05
2024-01-24T03:38:47.617Z,13.05
2024-01-24T03:43:49.312Z,13.12
2024-01-24T03:48:51.734Z,13.12
2024-01-24T03:53:53.083Z,13.13
2024-01-24T03:58:54.304Z,13.12
2024-01-24T04:03:55.923Z,13.12
2024-01-24T04:08:57.283Z,13.15
2024-01-24T04:13:59.632Z,13.23
2024-01-24T04:19:00.975Z,13.20
2024-01-24T04:24:02.223Z,13.26
2024-01-24T04:29:03.485Z,13.29
2024-01-24T04:34:04.856Z,13.23
2024-01-24T04:39:06.628Z,13.26
2024-01-24T04:44:07.883Z,13.23
2024-01-24T04:49:16.091Z,13.26
2024-01-24T04:54:23.941Z,13.19
2024-01-24T04:59:25.201Z,13.19
2024-01-24T05:04:26.426Z,13.20
2024-01-24T05:09:27.664Z,13.06
2024-01-24T05:14:29.358Z,12.89
2024-01-24T05:19:30.682Z,12.77
2024-01-24T05:24:32.104Z,12.54
2024-01-24T05:29:33.334Z,12.52
2024-01-24T05:34:34.671Z,12.64
2024-01-24T05:39:36.169Z,12.72
2024-01-24T05:44:37.401Z,12.65
2024-01-24T05:49:38.758Z,12.62
2024-01-24T05:54:39.994Z,12.61
2024-01-24T05:59:41.280Z,12.60
2024-01-24T06:04:42.690Z,12.54
2024-01-24T06:09:44.033Z,12.38
2024-01-24T06:14:45.416Z,12.34
2024-01-24T06:19:46.770Z,12.37
2024-01-24T06:24:48.299Z,12.29
2024-01-24T06:30:17.227Z,12.21
2024-01-24T06:35:11.901Z,12.23
2024-01-24T06:40:13.201Z,12.23
2024-01-24T06:45:14.517Z,12.17
2024-01-24T06:50:17.664Z,12.09
2024-01-24T06:55:19.029Z,12.07
2024-01-24T07:00:20.420Z,12.04
2024-01-24T07:05:21.668Z,12.03
2024-01-24T07:10:23.160Z,11.97
2024-01-24T07:15:24.403Z,11.92
2024-01-24T07:20:25.662Z,11.87
2024-01-24T07:25:26.987Z,11.86
2024-01-24T07:30:29.027Z,11.82
2024-01-24T07:35:30.265Z,11.80
2024-01-24T07:40:31.473Z,11.78
2024-01-24T07:45:32.772Z,11.72
2024-01-24T07:50:34.090Z,11.62
2024-01-24T07:55:41.708Z,11.61
2024-01-24T08:00:55.743Z,11.61
2024-01-24T08:05:57.500Z,11.61
2024-01-24T08:10:58.939Z,11.52
2024-01-24T08:16:00.293Z,11.43
2024-01-24T08:21:01.583Z,11.36
2024-01-24T08:26:02.826Z,11.17
2024-01-24T08:31:04.523Z,11.04
2024-01-24T08:36:05.841Z,11.03
2024-01-24T08:41:08.345Z,11.10
2024-01-24T08:46:09.700Z,11.18
2024-01-24T08:51:11.123Z,11.22
2024-01-24T08:56:12.411Z,11.22
2024-01-24T09:01:13.816Z,11.27
2024-01-24T09:06:16.379Z,11.28
2024-01-24T09:11:17.651Z,11.25
2024-01-24T09:16:18.969Z,11.01
2024-01-24T09:21:20.472Z,10.81
2024-01-24T09:26:21.879Z,10.79
2024-01-24T09:31:23.181Z,10.81
2024-01-24T09:36:24.519Z,10.81
2024-01-24T09:41:26.050Z,10.89
2024-01-24T09:46:27.288Z,10.87
2024-01-24T09:51:30.023Z,10.85
2024-01-24T09:56:31.382Z,10.89
2024-01-24T10:01:32.717Z,10.94
2024-01-24T10:06:34.369Z,10.97
2024-01-24T10:11:35.862Z,11.03
2024-01-24T10:16:37.196Z,11.08
2024-01-24T10:21:38.633Z,11.12
2024-01-24T10:26:39.905Z,11.17
2024-01-24T10:31:41.227Z,11.15
2024-01-24T10:36:44.013Z,11.17
2024-01-24T10:41:45.786Z,11.22
2024-01-24T10:46:47.044Z,11.27
2024-01-24T10:51:48.338Z,11.38
2024-01-24T10:56:51.441Z,11.48
2024-01-24T11:01:52.884Z,11.52
2024-01-24T11:06:54.141Z,11.49
2024-01-24T11:11:55.491Z,11.39
2024-01-24T11:16:56.711Z,11.35
2024-01-24T11:21:57.996Z,11.31
2024-01-24T11:26:59.344Z,11.27
2024-01-24T11:32:01.886Z,11.27
2024-01-24T11:37:03.216Z,11.31
2024-01-24T11:42:04.706Z,11.41
2024-01-24T11:47:05.943Z,11.43
2024-01-24T11:52:07.228Z,11.55
2024-01-24T11:57:08.516Z,11.59
2024-01-24T12:02:09.747Z,11.57
2024-01-24T12:07:11.039Z,11.57
2024-01-24T12:12:12.278Z,11.59
2024-01-24T12:17:13.555Z,11.66
2024-01-24T12:22:14.965Z,11.75
2024-01-24T12:27:16.336Z,11.69
2024-01-24T12:32:17.883Z,11.59
2024-01-24T12:37:19.867Z,11.55
2024-01-24T12:42:21.242Z,11.52
2024-01-24T12:47:22.566Z,11.45
2024-01-24T12:52:23.923Z,11.42
2024-01-24T12:57:25.484Z,11.41
2024-01-24T13:02:28.741Z,11.42
2024-01-24T13:07:30.238Z,11.43
2024-01-24T13:12:31.635Z,11.46
2024-01-24T13:17:34.357Z,11.43
2024-01-24T13:22:35.594Z,11.41
2024-01-24T13:27:36.986Z,11.42
2024-01-24T13:32:38.783Z,11.35
2024-01-24T13:37:40.028Z,11.35
2024-01-24T13:42:41.344Z,11.31
2024-01-24T13:47:42.773Z,11.28
2024-01-24T13:52:44.245Z,11.28
2024-01-24T13:57:45.960Z,11.24
2024-01-24T14:02:47.515Z,11.27
2024-01-24T14:07:48.814Z,11.30
2024-01-24T14:12:50.215Z,11.31
2024-01-24T14:17:51.518Z,11.32
2024-01-24T14:22:52.767Z,11.28
2024-01-24T14:27:53.977Z,11.27
2024-01-24T14:32:55.254Z,11.20
2024-01-24T14:37:56.556Z,11.14
2024-01-24T14:42:57.809Z,11.06
2024-01-24T14:47:59.605Z,11.04
2024-01-24T14:53:00.873Z,11.04
2024-01-24T14:58:02.163Z,11.01
2024-01-24T15:03:04.871Z,10.99
2024-01-24T15:08:06.987Z,10.99
2024-01-24T15:13:08.247Z,10.96
2024-01-24T15:18:10.078Z,10.94
2024-01-24T15:23:11.329Z,10.89
2024-01-24T15:28:13.082Z,10.85
2024-01-24T15:33:14.437Z,10.77
2024-01-24T15:38:15.723Z,10.73
2024-01-24T15:43:17.855Z,10.67
2024-01-24T15:48:19.258Z,10.64
2024-01-24T15:53:20.564Z,10.59
2024-01-24T15:58:21.939Z,10.50
2024-01-24T16:03:23.693Z,10.43
2024-01-24T16:08:25.114Z,10.42
2024-01-24T16:13:26.382Z,10.35
2024-01-24T16:18:29.838Z,10.31
2024-01-24T16:23:31.093Z,10.28
2024-01-24T16:28:32.331Z,10.28
2024-01-24T16:33:33.841Z,10.26
2024-01-24T16:38:35.202Z,10.23
2024-01-24T16:43:37.234Z,10.21
2024-01-24T16:48:39.377Z,10.15
2024-01-24T16:53:41.368Z,10.11
2024-01-24T16:58:42.769Z,10.09
2024-01-24T17:03:45.687Z,10.06
2024-01-24T17:08:47.207Z,10.01
2024-01-24T17:13:48.428Z,9.97
2024-01-24T17:18:49.723Z,9.92
2024-01-24T17:23:51.877Z,9.90
2024-01-24T17:28:55.204Z,9.88
2024-01-24T17:33:57.999Z,9.85
2024-01-24T17:38:59.437Z,9.81
2024-01-24T17:44:00.712Z,9.73
2024-01-24T17:49:02.346Z,9.71
2024-01-24T17:54:03.969Z,9.71
2024-01-24T17:59:05.315Z,9.70
2024-01-24T18:04:06.960Z,9.71
2024-01-24T18:09:08.417Z,9.71
2024-01-24T18:14:09.660Z,9.70
2024-01-24T18:19:10.983Z,9.65
2024-01-24T18:24:12.304Z,9.65
2024-01-24T18:29:14.901Z,9.61
2024-01-24T18:34:18.621Z,9.58
2024-01-24T18:39:20.054Z,9.58
2024-01-24T18:44:21.426Z,9.55
2024-01-24T18:49:23.069Z,9.55
2024-01-24T18:54:24.599Z,9.53
2024-01-24T18:59:25.878Z,9.51
2024-01-24T19:04:27.349Z,9.48
2024-01-24T19:09:28.794Z,9.48
2024-01-24T19:14:30.287Z,9.47
2024-01-24T19:19:32.062Z,9.46
2024-01-24T19:24:34.725Z,9.46
2024-01-24T19:29:36.972Z,9.40
2024-01-24T19:34:39.729Z,9.40
2024-01-24T19:39:41.631Z,9.32
2024-01-24T19:44:43.882Z,9.29
2024-01-24T19:49:45.238Z,9.30
2024-01-24T19:54:46.624Z,9.27
2024-01-24T19:59:47.862Z,9.19
2024-01-24T20:04:49.160Z,9.11
2024-01-24T20:09:51.454Z,8.99
2024-01-24T20:14:52.724Z,8.89
2024-01-24T20:19:54.458Z,8.86
2024-01-24T20:24:55.788Z,8.89
2024-01-24T20:29:57.112Z,8.88
2024-01-24T20:34:58.513Z,8.95
2024-01-24T20:39:59.979Z,8.89
2024-01-24T20:45:01.261Z,8.91
2024-01-24T20:50:02.683Z,8.91
2024-01-24T20:55:04.076Z,8.89
2024-01-24T21:00:06.859Z,8.91
2024-01-24T21:05:08.316Z,8.91
2024-01-24T21:10:09.987Z,8.89
2024-01-24T21:15:11.335Z,8.91
2024-01-24T21:20:12.610Z,8.89
2024-01-24T21:25:14.052Z,8.81
2024-01-24T21:30:15.381Z,8.79
2024-01-24T21:35:16.635Z,8.78
2024-01-24T21:40:18.000Z,8.72
2024-01-24T21:45:19.337Z,8.65
2024-01-24T21:50:20.591Z,8.55
2024-01-24T21:55:21.832Z,8.45
2024-01-24T22:00:23.067Z,8.32
2024-01-24T22:05:24.363Z,8.30
2024-01-24T22:10:25.842Z,8.27
2024-01-24T22:15:27.204Z,8.22
2024-01-24T22:20:28.577Z,8.23
2024-01-24T22:25:29.951Z,8.30
2024-01-24T22:30:31.357Z,8.32
2024-01-24T22:35:33.080Z,8.32
2024-01-24T22:40:34.456Z,8.24
2024-01-24T22:45:35.785Z,8.23
2024-01-24T22:50:37.154Z,8.26
2024-01-24T22:55:38.489Z,8.29
2024-01-24T23:00:39.855Z,8.30
2024-01-24T23:05:41.380Z,8.30
2024-01-24T23:10:42.646Z,8.29
2024-01-24T23:15:44.017Z,8.24
2024-01-24T23:20:45.295Z,8.27
2024-01-24T23:25:49.879Z,8.27
2024-01-24T23:30:52.735Z,8.27
2024-01-24T23:35:54.097Z,8.27
2024-01-24T23:40:55.384Z,8.22
2024-01-24T23:45:56.706Z,8.22
2024-01-24T23:50:58.138Z,8.24
2024-01-24T23:55:59.542Z,8.23
